createdAt,value
2018-04-05T00:01:07.051Z,11.50
2018-04-05T00:03:34.601Z,11.60
2018-04-05T00:06:02.186Z,11.50
2018-04-05T00:08:29.850Z,11.50
2018-04-05T00:10:57.382Z,11.40
2018-04-05T00:13:24.917Z,11.40
2018-04-05T00:15:53.224Z,11.30
2018-04-05T00:18:20.782Z,11.30
2018-04-05T00:20:49.348Z,11.40
2018-04-05T00:23:16.873Z,11.30
2018-04-05T00:25:45.202Z,11.40
2018-04-05T00:30:46.752Z,11.40
2018-04-05T00:33:15.461Z,11.40
2018-04-05T00:35:43.031Z,11.30
2018-04-05T00:38:10.691Z,11.30
2018-04-05T00:40:38.442Z,11.30
2018-04-05T00:43:06.039Z,11.30
2018-04-05T00:45:33.600Z,11.20
2018-04-05T00:48:01.308Z,11.20
2018-04-05T00:50:29.538Z,11.20
2018-04-05T00:53:09.770Z,11.30
2018-04-05T00:55:37.324Z,11.30
2018-04-05T00:58:04.843Z,11.30
2018-04-05T01:00:34.135Z,11.40
2018-04-05T01:03:02.561Z,11.50
2018-04-05T01:05:30.134Z,11.40
2018-04-05T01:07:58.630Z,11.50
2018-04-05T01:10:27.676Z,11.40
2018-04-05T01:12:55.269Z,11.50
2018-04-05T01:15:22.826Z,11.40
2018-04-05T01:17:50.390Z,11.40
2018-04-05T01:20:17.935Z,11.30
2018-04-05T01:22:45.489Z,11.30
2018-04-05T01:25:13.145Z,11.20
2018-04-05T01:27:40.711Z,11.20
2018-04-05T01:30:08.349Z,11.20
2018-04-05T01:32:37.031Z,11.10
2018-04-05T01:35:04.557Z,11.20
2018-04-05T01:37:33.101Z,11.10
2018-04-05T01:40:01.631Z,11.10
2018-04-05T01:42:29.962Z,11.10
2018-04-05T01:44:57.485Z,11.10
2018-04-05T01:47:25.036Z,11.10
2018-04-05T01:49:54.475Z,11.10
2018-04-05T01:52:22.025Z,11.10
2018-04-05T01:54:49.766Z,11.10
2018-04-05T01:57:17.364Z,11.20
2018-04-05T01:59:44.948Z,11.10
2018-04-05T02:02:12.486Z,11.10
2018-04-05T02:04:40.006Z,11.10
2018-04-05T02:07:07.567Z,11.10
2018-04-05T02:09:35.106Z,11.10
2018-04-05T02:12:04.369Z,11.20
2018-04-05T02:14:31.925Z,11.20
2018-04-05T02:16:59.483Z,11.30
2018-04-05T02:19:27.008Z,11.30
2018-04-05T02:21:54.553Z,11.30
2018-04-05T02:24:24.110Z,11.40
2018-04-05T02:26:51.654Z,11.40
2018-04-05T02:29:19.195Z,11.40
2018-04-05T02:31:47.710Z,11.30
2018-04-05T02:34:17.207Z,11.30
2018-04-05T02:36:44.749Z,11.30
2018-04-05T02:39:12.308Z,11.30
2018-04-05T02:41:39.897Z,11.20
2018-04-05T02:44:17.344Z,11.20
2018-04-05T02:46:44.952Z,11.20
2018-04-05T02:49:12.498Z,11.20
2018-04-05T02:51:40.060Z,11.20
2018-04-05T02:54:08.555Z,11.20
2018-04-05T02:56:36.079Z,11.20
2018-04-05T02:59:03.627Z,11.20
2018-04-05T03:01:31.151Z,11.20
2018-04-05T03:03:59.475Z,11.20
2018-04-05T03:06:27.015Z,11.20
2018-04-05T03:08:54.573Z,11.20
2018-04-05T03:11:22.102Z,11.10
2018-04-05T03:13:51.066Z,11.20
2018-04-05T03:16:18.616Z,11.10
2018-04-05T03:18:46.212Z,11.20
2018-04-05T03:21:14.690Z,11.10
2018-04-05T03:23:42.446Z,11.10
2018-04-05T03:26:10.045Z,11.10
2018-04-05T03:28:38.615Z,11.20
2018-04-05T03:31:06.181Z,11.20
2018-04-05T03:33:37.002Z,11.10
2018-04-05T03:36:05.461Z,11.10
2018-04-05T03:38:33.031Z,11.10
2018-04-05T03:41:00.554Z,11.10
2018-04-05T03:43:28.108Z,11.10
2018-04-05T03:45:55.996Z,11.00
2018-04-05T03:48:24.053Z,11.00
2018-04-05T03:50:51.838Z,11.00
2018-04-05T03:53:19.931Z,11.00
2018-04-05T03:55:48.277Z,11.00
2018-04-05T03:58:15.822Z,11.00
2018-04-05T04:00:43.676Z,11.00
2018-04-05T04:03:12.177Z,11.00
2018-04-05T04:05:39.699Z,10.90
2018-04-05T04:08:07.254Z,10.80
2018-04-05T04:10:34.822Z,10.90
2018-04-05T04:13:02.395Z,10.90
2018-04-05T04:15:30.461Z,10.90
2018-04-05T04:17:58.786Z,10.90
2018-04-05T04:20:26.862Z,10.90
2018-04-05T04:22:54.867Z,10.80
2018-04-05T04:25:23.054Z,10.80
2018-04-05T04:27:51.167Z,10.80
2018-04-05T04:30:19.534Z,10.80
2018-04-05T04:32:49.131Z,10.80
2018-04-05T04:35:17.361Z,10.70
2018-04-05T04:37:46.606Z,10.70
2018-04-05T04:40:14.640Z,10.70
2018-04-05T04:42:43.026Z,10.70
2018-04-05T04:45:10.822Z,10.70
2018-04-05T04:47:38.553Z,10.70
2018-04-05T04:50:06.545Z,10.70
2018-04-05T04:52:34.100Z,10.70
2018-04-05T04:55:01.636Z,10.70
2018-04-05T04:57:29.191Z,10.60
2018-04-05T04:59:56.749Z,10.70
2018-04-05T05:02:24.288Z,10.60
2018-04-05T05:04:51.838Z,10.60
2018-04-05T05:07:19.375Z,10.50
2018-04-05T05:09:47.282Z,10.60
2018-04-05T05:12:15.580Z,10.60
2018-04-05T05:14:43.450Z,10.50
2018-04-05T05:17:11.016Z,10.50
2018-04-05T05:19:38.583Z,10.50
2018-04-05T05:22:07.254Z,10.40
2018-04-05T05:24:34.775Z,10.40
2018-04-05T05:27:03.090Z,10.50
2018-04-05T05:29:31.643Z,10.40
2018-04-05T05:31:59.182Z,10.50
2018-04-05T05:34:27.505Z,10.40
2018-04-05T05:36:55.028Z,10.40
2018-04-05T05:39:23.363Z,10.40
2018-04-05T05:41:50.902Z,10.40
2018-04-05T05:44:18.487Z,10.50
2018-04-05T05:46:46.019Z,10.30
2018-04-05T05:49:14.526Z,10.20
2018-04-05T05:51:43.975Z,10.20
2018-04-05T05:54:11.498Z,10.20
2018-04-05T05:56:39.047Z,10.20
2018-04-05T05:59:06.594Z,10.20
2018-04-05T06:01:34.143Z,10.10
2018-04-05T06:04:01.703Z,10.10
2018-04-05T06:06:29.222Z,10.00
2018-04-05T06:08:56.833Z,10.00
2018-04-05T06:11:24.339Z,9.90
2018-04-05T06:13:52.706Z,9.90
2018-04-05T06:16:20.228Z,9.90
2018-04-05T06:18:48.707Z,9.90
2018-04-05T06:21:16.921Z,9.90
2018-04-05T06:23:45.214Z,10.00
2018-04-05T06:26:14.438Z,10.00
2018-04-05T06:28:44.130Z,10.00
2018-04-05T06:31:12.529Z,10.10
2018-04-05T06:33:40.971Z,10.20
2018-04-05T06:36:09.458Z,10.20
2018-04-05T06:38:38.977Z,10.30
2018-04-05T06:41:06.534Z,10.30
2018-04-05T06:43:34.443Z,10.40
2018-04-05T06:46:02.473Z,10.50
2018-04-05T06:48:31.025Z,10.60
2018-04-05T06:50:59.144Z,10.70
2018-04-05T06:53:27.450Z,10.80
2018-04-05T06:55:55.199Z,10.70
2018-04-05T06:58:23.653Z,10.80
2018-04-05T07:00:51.840Z,10.90
2018-04-05T07:03:20.029Z,10.80
2018-04-05T07:05:48.174Z,10.90
2018-04-05T07:08:16.159Z,10.90
2018-04-05T07:10:44.383Z,11.10
2018-04-05T07:13:14.581Z,10.80
2018-04-05T07:15:43.100Z,10.80
2018-04-05T07:18:11.614Z,10.70
2018-04-05T07:20:39.279Z,10.60
2018-04-05T07:23:07.645Z,10.70
2018-04-05T07:25:35.260Z,10.60
2018-04-05T07:28:02.993Z,10.50
2018-04-05T07:30:30.552Z,10.40
2018-04-05T07:32:58.141Z,10.50
2018-04-05T07:35:25.904Z,10.60
2018-04-05T07:37:54.046Z,10.60
2018-04-05T07:40:22.296Z,10.80
2018-04-05T07:42:51.189Z,10.90
2018-04-05T07:45:19.183Z,10.80
2018-04-05T07:47:47.032Z,11.00
2018-04-05T07:50:15.718Z,11.00
2018-04-05T07:52:43.277Z,11.00
2018-04-05T07:55:10.818Z,11.20
2018-04-05T07:57:38.379Z,11.20
2018-04-05T08:00:06.037Z,11.10
2018-04-05T08:02:34.592Z,11.30
2018-04-05T08:05:03.139Z,11.30
2018-04-05T08:07:30.886Z,11.40
2018-04-05T08:09:58.515Z,11.70
2018-04-05T08:12:26.335Z,11.70
2018-04-05T08:14:53.939Z,11.30
2018-04-05T08:17:22.276Z,11.30
2018-04-05T08:19:50.751Z,11.30
2018-04-05T08:22:18.320Z,11.30
2018-04-05T08:24:45.870Z,11.60
2018-04-05T08:27:13.454Z,11.90
2018-04-05T08:29:42.854Z,11.70
2018-04-05T08:32:11.185Z,11.70
2018-04-05T08:34:39.576Z,11.40
2018-04-05T08:37:07.420Z,11.30
2018-04-05T08:39:36.126Z,11.20
2018-04-05T08:42:03.678Z,11.20
2018-04-05T08:44:31.195Z,11.60
2018-04-05T08:47:00.775Z,11.50
2018-04-05T08:49:28.397Z,11.60
2018-04-05T08:51:55.958Z,11.80
2018-04-05T08:54:23.526Z,11.90
2018-04-05T08:56:51.051Z,12.20
2018-04-05T08:59:18.606Z,12.30
2018-04-05T09:01:46.898Z,12.20
2018-04-05T09:04:16.400Z,12.20
2018-04-05T09:06:43.930Z,12.00
2018-04-05T09:09:12.232Z,12.20
2018-04-05T09:11:39.814Z,12.20
2018-04-05T09:14:07.339Z,12.50
2018-04-05T09:16:34.894Z,12.60
2018-04-05T09:19:03.207Z,12.30
2018-04-05T09:21:30.761Z,12.30
2018-04-05T09:23:59.668Z,12.20
2018-04-05T09:26:27.566Z,12.00
2018-04-05T09:28:55.796Z,12.10
2018-04-05T09:31:23.478Z,11.90
2018-04-05T09:33:51.467Z,12.30
2018-04-05T09:36:19.542Z,12.30
2018-04-05T09:38:47.123Z,12.40
2018-04-05T09:41:16.150Z,13.10
2018-04-05T09:43:44.486Z,13.10
2018-04-05T09:46:12.326Z,13.10
2018-04-05T09:48:40.187Z,13.00
2018-04-05T09:51:07.727Z,12.90
2018-04-05T09:53:35.737Z,13.20
2018-04-05T09:56:03.916Z,13.40
2018-04-05T09:58:32.621Z,13.60
2018-04-05T10:01:00.422Z,13.70
2018-04-05T10:03:29.443Z,13.50
2018-04-05T10:05:58.701Z,14.00
2018-04-05T10:08:26.262Z,14.00
2018-04-05T10:10:54.742Z,14.30
2018-04-05T10:13:22.303Z,14.30
2018-04-05T10:15:49.996Z,14.60
2018-04-05T10:18:18.296Z,14.10
2018-04-05T10:20:45.856Z,13.60
2018-04-05T10:23:14.177Z,13.20
2018-04-05T10:25:41.802Z,13.20
2018-04-05T10:28:09.388Z,13.10
2018-04-05T10:30:37.117Z,13.00
2018-04-05T10:33:04.802Z,12.70
2018-04-05T10:35:32.331Z,12.50
2018-04-05T10:37:59.878Z,12.30
2018-04-05T10:40:27.410Z,12.30
2018-04-05T10:42:54.931Z,12.10
2018-04-05T10:45:22.781Z,11.90
2018-04-05T10:47:50.295Z,12.20
2018-04-05T10:50:17.847Z,12.40
2018-04-05T10:52:45.362Z,12.60
2018-04-05T10:55:13.650Z,13.20
2018-04-05T10:57:41.198Z,13.20
2018-04-05T11:00:09.706Z,13.00
2018-04-05T11:02:37.261Z,13.00
2018-04-05T11:05:04.783Z,13.30
2018-04-05T11:07:33.246Z,13.50
2018-04-05T11:10:00.811Z,13.80
2018-04-05T11:12:28.333Z,13.70
2018-04-05T11:14:56.017Z,14.10
2018-04-05T11:17:23.544Z,14.50
2018-04-05T11:19:52.075Z,14.90
2018-04-05T11:22:19.634Z,15.10
2018-04-05T11:24:47.168Z,15.00
2018-04-05T11:27:14.727Z,15.40
2018-04-05T11:29:42.267Z,15.80
2018-04-05T11:32:10.766Z,16.00
2018-04-05T11:34:38.382Z,15.80
2018-04-05T11:37:05.944Z,15.30
2018-04-05T11:39:35.487Z,15.10
2018-04-05T11:42:03.324Z,15.40
2018-04-05T11:44:30.855Z,15.40
2018-04-05T11:47:00.362Z,15.00
2018-04-05T11:49:27.921Z,15.40
2018-04-05T11:51:56.074Z,15.00
2018-04-05T11:54:23.586Z,14.70
2018-04-05T11:56:52.387Z,14.10
2018-04-05T11:59:20.164Z,13.90
2018-04-05T12:01:48.635Z,13.80
2018-04-05T12:04:16.205Z,13.70
2018-04-05T12:06:43.730Z,13.50
2018-04-05T12:09:11.253Z,12.80
2018-04-05T12:11:39.566Z,13.00
2018-04-05T12:14:07.094Z,13.00
2018-04-05T12:16:34.658Z,13.80
2018-04-05T12:19:03.199Z,13.90
2018-04-05T12:21:31.901Z,14.30
2018-04-05T12:23:59.450Z,14.30
2018-04-05T12:26:27.961Z,13.80
2018-04-05T12:28:55.541Z,13.60
2018-04-05T12:31:23.061Z,13.60
2018-04-05T12:33:50.595Z,13.90
2018-04-05T12:36:18.170Z,14.30
2018-04-05T12:38:45.702Z,14.70
2018-04-05T12:41:13.257Z,14.50
2018-04-05T12:43:40.777Z,14.10
2018-04-05T12:46:08.323Z,14.00
2018-04-05T12:48:36.040Z,13.90
2018-04-05T12:51:03.648Z,13.40
2018-04-05T12:53:31.668Z,13.30
2018-04-05T12:55:59.197Z,13.00
2018-04-05T12:58:27.794Z,12.90
2018-04-05T13:00:55.358Z,12.70
2018-04-05T13:03:22.878Z,12.50
2018-04-05T13:05:51.829Z,12.20
2018-04-05T13:08:19.634Z,12.30
2018-04-05T13:10:47.153Z,12.50
2018-04-05T13:13:16.666Z,12.50
2018-04-05T13:15:44.969Z,12.30
2018-04-05T13:18:12.530Z,12.30
2018-04-05T13:20:40.176Z,12.20
2018-04-05T13:23:08.964Z,12.40
2018-04-05T13:25:36.566Z,12.40
2018-04-05T13:28:04.856Z,12.50
2018-04-05T13:30:32.419Z,12.50
2018-04-05T13:32:59.976Z,12.50
2018-04-05T13:35:27.556Z,12.40
2018-04-05T13:37:55.114Z,12.40
2018-04-05T13:40:22.642Z,12.20
2018-04-05T13:42:51.195Z,11.50
2018-04-05T13:45:18.726Z,11.30
2018-04-05T13:47:46.263Z,10.90
2018-04-05T13:50:13.854Z,10.40
2018-04-05T13:52:41.381Z,10.10
2018-04-05T13:55:08.952Z,10.00
2018-04-05T13:57:36.480Z,9.50
2018-04-05T14:00:04.077Z,9.20
2018-04-05T14:02:32.601Z,9.10
2018-04-05T14:05:01.685Z,9.10
2018-04-05T14:07:29.239Z,9.00
2018-04-05T14:09:57.543Z,8.70
2018-04-05T14:12:25.835Z,8.60
2018-04-05T14:14:53.387Z,8.60
2018-04-05T14:17:20.910Z,8.60
2018-04-05T14:19:48.542Z,8.60
2018-04-05T14:22:16.071Z,8.60
2018-04-05T14:24:43.603Z,8.60
2018-04-05T14:27:11.146Z,8.70
2018-04-05T14:29:38.664Z,8.80
2018-04-05T14:32:06.225Z,8.90
2018-04-05T14:34:33.738Z,9.00
2018-04-05T14:37:03.080Z,9.20
2018-04-05T14:39:30.636Z,9.20
2018-04-05T14:41:58.180Z,9.30
2018-04-05T14:44:25.960Z,9.40
2018-04-05T14:46:53.710Z,9.50
2018-04-05T14:49:23.499Z,9.50
2018-04-05T14:51:51.960Z,9.50
2018-04-05T14:54:21.022Z,9.40
2018-04-05T14:56:48.584Z,9.40
2018-04-05T14:59:16.098Z,9.40
2018-04-05T15:01:43.622Z,9.40
2018-04-05T15:04:11.214Z,9.80
2018-04-05T15:06:38.749Z,10.30
2018-04-05T15:09:06.317Z,10.20
2018-04-05T15:11:34.090Z,10.10
2018-04-05T15:14:02.581Z,10.10
2018-04-05T15:16:30.903Z,10.00
2018-04-05T15:18:58.448Z,9.90
2018-04-05T15:21:26.094Z,9.90
2018-04-05T15:23:53.653Z,9.90
2018-04-05T15:26:21.182Z,9.90
2018-04-05T15:28:49.538Z,9.80
2018-04-05T15:31:17.069Z,9.80
2018-04-05T15:33:44.972Z,9.80
2018-04-05T15:36:12.607Z,9.80
2018-04-05T15:38:40.127Z,9.60
2018-04-05T15:41:09.035Z,9.50
2018-04-05T15:43:36.623Z,9.40
2018-04-05T15:46:06.004Z,9.50
2018-04-05T15:48:33.614Z,9.50
2018-04-05T15:51:01.481Z,9.60
2018-04-05T15:53:29.036Z,9.70
2018-04-05T15:55:56.597Z,9.70
2018-04-05T15:58:25.081Z,9.70
2018-04-05T16:00:53.463Z,9.70
2018-04-05T16:03:21.748Z,9.70
2018-04-05T16:05:50.213Z,9.70
2018-04-05T16:08:17.777Z,9.70
2018-04-05T16:10:46.072Z,9.70
2018-04-05T16:13:13.674Z,9.70
2018-04-05T16:15:41.203Z,9.70
2018-04-05T16:18:08.718Z,9.70
2018-04-05T16:20:36.278Z,9.60
2018-04-05T16:23:03.810Z,9.50
2018-04-05T16:25:32.366Z,9.60
2018-04-05T16:27:59.894Z,9.70
2018-04-05T16:30:27.727Z,9.80
2018-04-05T16:32:56.265Z,9.90
2018-04-05T16:35:24.056Z,9.90
2018-04-05T16:37:51.709Z,9.80
2018-04-05T16:40:19.469Z,9.70
2018-04-05T16:42:47.232Z,9.70
2018-04-05T16:45:14.800Z,9.70
2018-04-05T16:47:42.368Z,9.60
2018-04-05T16:50:09.914Z,9.70
2018-04-05T16:52:38.394Z,9.60
2018-04-05T16:55:05.914Z,9.70
2018-04-05T16:57:34.236Z,9.60
2018-04-05T17:00:01.980Z,9.60
2018-04-05T17:02:30.411Z,9.60
2018-04-05T17:04:58.231Z,9.50
2018-04-05T17:07:25.926Z,9.50
2018-04-05T17:09:55.431Z,9.50
2018-04-05T17:12:22.951Z,9.50
2018-04-05T17:14:50.502Z,9.60
2018-04-05T17:17:19.052Z,9.60
2018-04-05T17:19:47.574Z,9.50
2018-04-05T17:22:15.239Z,9.50
2018-04-05T17:24:42.778Z,9.50
2018-04-05T17:27:10.340Z,9.50
2018-04-05T17:29:38.650Z,9.30
2018-04-05T17:32:07.317Z,9.30
2018-04-05T17:34:36.828Z,9.30
2018-04-05T17:37:05.408Z,9.20
2018-04-05T17:39:32.973Z,9.20
2018-04-05T17:42:00.521Z,9.20
2018-04-05T17:44:28.046Z,9.20
2018-04-05T17:46:55.608Z,9.10
2018-04-05T17:49:23.894Z,9.10
2018-04-05T17:51:51.452Z,9.20
2018-04-05T17:54:18.976Z,9.20
2018-04-05T17:56:46.515Z,9.20
2018-04-05T17:59:14.132Z,9.20
2018-04-05T18:01:42.640Z,9.10
2018-04-05T18:04:10.191Z,9.10
2018-04-05T18:06:37.715Z,9.20
2018-04-05T18:09:06.130Z,9.20
2018-04-05T18:11:33.689Z,9.10
2018-04-05T18:14:01.239Z,9.10
2018-04-05T18:16:29.771Z,9.10
2018-04-05T18:18:58.092Z,9.10
2018-04-05T18:21:25.618Z,9.10
2018-04-05T18:23:53.163Z,9.00
2018-04-05T18:26:20.694Z,9.00
2018-04-05T18:28:48.243Z,9.00
2018-04-05T18:31:16.728Z,8.90
2018-04-05T18:33:44.254Z,8.80
2018-04-05T18:36:11.807Z,8.70
2018-04-05T18:38:39.327Z,8.80
2018-04-05T18:41:07.891Z,8.80
2018-04-05T18:43:35.415Z,8.80
2018-04-05T18:46:02.944Z,8.70
2018-04-05T18:48:30.506Z,8.80
2018-04-05T18:50:58.037Z,8.80
2018-04-05T18:53:25.588Z,8.80
2018-04-05T18:55:53.141Z,8.80
2018-04-05T18:58:20.679Z,8.70
2018-04-05T19:00:48.233Z,8.60
2018-04-05T19:03:15.759Z,8.60
2018-04-05T19:05:44.102Z,8.60
2018-04-05T19:08:12.565Z,8.60
2018-04-05T19:10:40.125Z,8.40
2018-04-05T19:13:07.660Z,8.50
2018-04-05T19:15:35.984Z,8.50
2018-04-05T19:18:03.541Z,8.40
2018-04-05T19:20:31.065Z,8.50
2018-04-05T19:22:58.635Z,8.50
2018-04-05T19:25:27.136Z,8.50
2018-04-05T19:27:54.663Z,8.30
2018-04-05T19:30:22.222Z,8.30
2018-04-05T19:32:49.742Z,8.30
2018-04-05T19:35:17.362Z,8.20
2018-04-05T19:37:45.211Z,8.10
2018-04-05T19:40:12.744Z,8.10
2018-04-05T19:42:41.063Z,8.10
2018-04-05T19:45:08.579Z,8.10
2018-04-05T19:47:36.910Z,8.00
2018-04-05T19:50:04.441Z,7.90
2018-04-05T19:52:32.016Z,7.70
2018-04-05T19:54:59.561Z,7.70
2018-04-05T19:57:27.101Z,7.40
2018-04-05T19:59:55.418Z,7.50
2018-04-05T20:02:22.931Z,7.40
2018-04-05T20:04:50.447Z,7.50
2018-04-05T20:07:18.018Z,7.40
2018-04-05T20:09:45.532Z,7.40
2018-04-05T20:12:13.090Z,7.30
2018-04-05T20:14:41.578Z,7.20
2018-04-05T20:17:09.127Z,7.20
2018-04-05T20:19:36.659Z,7.10
2018-04-05T20:22:04.190Z,7.10
2018-04-05T20:24:31.767Z,7.10
2018-04-05T20:26:59.298Z,7.20
2018-04-05T20:29:26.834Z,7.30
2018-04-05T20:31:54.398Z,7.30
2018-04-05T20:34:21.949Z,7.30
2018-04-05T20:36:49.519Z,7.30
2018-04-05T20:39:17.998Z,7.30
2018-04-05T20:41:45.525Z,7.30
2018-04-05T20:44:13.098Z,7.30
2018-04-05T20:46:41.334Z,7.20
2018-04-05T20:49:08.909Z,7.10
2018-04-05T20:51:37.194Z,6.90
2018-04-05T20:54:04.724Z,6.90
2018-04-05T20:56:33.780Z,6.90
2018-04-05T20:59:01.299Z,6.90
2018-04-05T21:01:28.898Z,6.90
2018-04-05T21:03:56.446Z,6.80
2018-04-05T21:06:23.962Z,6.70
2018-04-05T21:08:51.507Z,6.60
2018-04-05T21:11:19.035Z,6.50
2018-04-05T21:13:46.584Z,6.40
2018-04-05T21:16:14.114Z,6.30
2018-04-05T21:18:42.406Z,6.30
2018-04-05T21:21:09.994Z,6.20
2018-04-05T21:23:37.540Z,6.20
2018-04-05T21:26:06.035Z,6.20
2018-04-05T21:28:33.573Z,6.10
2018-04-05T21:31:01.131Z,5.80
2018-04-05T21:33:28.696Z,5.80
2018-04-05T21:35:57.277Z,5.90
2018-04-05T21:38:24.805Z,5.90
2018-04-05T21:40:54.525Z,5.70
2018-04-05T21:43:22.493Z,5.60
2018-04-05T21:45:50.320Z,5.60
2018-04-05T21:48:18.770Z,5.60
2018-04-05T21:50:47.279Z,5.70
2018-04-05T21:53:14.842Z,5.70
2018-04-05T21:55:42.394Z,5.70
2018-04-05T21:58:09.914Z,5.70
2018-04-05T22:00:37.457Z,5.60
2018-04-05T22:03:05.011Z,5.60
2018-04-05T22:05:32.693Z,5.60
2018-04-05T22:08:00.234Z,5.50
2018-04-05T22:10:27.755Z,5.50
2018-04-05T22:12:56.230Z,5.50
2018-04-05T22:15:25.711Z,5.40
2018-04-05T22:17:53.268Z,5.40
2018-04-05T22:20:20.797Z,5.30
2018-04-05T22:22:48.321Z,5.30
2018-04-05T22:25:15.870Z,5.10
2018-04-05T22:27:43.411Z,5.20
2018-04-05T22:30:12.897Z,5.20
2018-04-05T22:32:40.414Z,5.20
2018-04-05T22:35:08.690Z,5.20
2018-04-05T22:37:36.995Z,5.10
2018-04-05T22:40:04.556Z,5.10
2018-04-05T22:42:32.096Z,5.20
2018-04-05T22:45:00.387Z,5.20
2018-04-05T22:47:27.951Z,5.20
2018-04-05T22:49:55.462Z,5.30
2018-04-05T22:52:23.784Z,5.30
2018-04-05T22:54:51.303Z,5.20
2018-04-05T22:57:18.830Z,5.20
2018-04-05T22:59:46.379Z,5.00
2018-04-05T23:02:13.906Z,5.10
2018-04-05T23:04:41.474Z,5.10
2018-04-05T23:07:09.000Z,5.10
2018-04-05T23:09:36.555Z,4.90
2018-04-05T23:12:04.075Z,5.00
2018-04-05T23:14:31.604Z,5.00
2018-04-05T23:16:59.143Z,4.90
2018-04-05T23:19:26.665Z,5.00
2018-04-05T23:21:54.215Z,5.10
2018-04-05T23:24:21.739Z,5.20
2018-04-05T23:26:49.297Z,5.20
2018-04-05T23:29:17.782Z,5.30
2018-04-05T23:31:45.352Z,5.30
2018-04-05T23:34:14.835Z,5.20
2018-04-05T23:36:42.353Z,5.10
2018-04-05T23:39:09.923Z,5.20
2018-04-05T23:41:37.483Z,5.20
2018-04-05T23:44:05.026Z,5.10
2018-04-05T23:46:33.571Z,5.00
2018-04-05T23:49:01.091Z,5.10
2018-04-05T23:51:28.641Z,5.10
2018-04-05T23:53:56.158Z,5.10
2018-04-05T23:56:23.683Z,5.20
2018-04-05T23:58:51.987Z,5.10
